createdAt,value
2019-04-16T00:00:35.288Z,23.23
2019-04-16T00:03:03.708Z,22.30
2019-04-16T00:05:33.911Z,21.65
2019-04-16T00:08:26.718Z,22.35
2019-04-16T00:10:51.317Z,22.58
2019-04-16T00:13:27.357Z,22.02
2019-04-16T00:15:56.069Z,22.25
2019-04-16T00:18:24.861Z,21.12
2019-04-16T00:21:13.367Z,22.48
2019-04-16T00:23:46.816Z,22.70
2019-04-16T00:26:15.449Z,21.25
2019-04-16T00:28:43.749Z,23.42
2019-04-16T00:31:12.525Z,22.17
2019-04-16T00:33:42.702Z,22.67
2019-04-16T00:36:11.464Z,17.77
2019-04-16T00:38:41.227Z,24.98
2019-04-16T00:41:10.060Z,22.63
2019-04-16T00:43:38.763Z,22.17
2019-04-16T00:46:08.480Z,23.12
2019-04-16T00:48:37.769Z,22.95
2019-04-16T00:51:06.881Z,22.98
2019-04-16T00:53:36.390Z,23.25
2019-04-16T00:56:05.867Z,23.32
2019-04-16T00:58:34.669Z,22.67
2019-04-16T01:01:03.247Z,23.70
2019-04-16T01:03:31.942Z,23.00
2019-04-16T01:06:00.605Z,21.90
2019-04-16T01:08:29.312Z,24.00
2019-04-16T01:10:57.963Z,24.75
2019-04-16T01:13:26.297Z,23.98
2019-04-16T01:15:54.935Z,22.80
2019-04-16T01:18:23.642Z,24.15
2019-04-16T01:20:52.353Z,24.05
2019-04-16T01:23:21.080Z,24.20
2019-04-16T01:25:49.682Z,24.65
2019-04-16T01:28:26.088Z,25.32
2019-04-16T01:30:56.114Z,23.52
2019-04-16T01:33:32.396Z,23.13
2019-04-16T01:36:11.742Z,25.60
2019-04-16T01:39:10.888Z,24.60
2019-04-16T01:41:26.901Z,24.32
2019-04-16T01:43:57.182Z,24.50
2019-04-16T01:46:25.865Z,25.45
2019-04-16T01:48:54.178Z,26.82
2019-04-16T01:51:22.472Z,25.68
2019-04-16T01:53:52.342Z,25.90
2019-04-16T01:56:21.420Z,25.05
2019-04-16T01:58:49.725Z,25.25
2019-04-16T02:01:18.027Z,25.20
2019-04-16T02:03:48.917Z,24.30
2019-04-16T02:06:16.991Z,25.20
2019-04-16T02:08:45.350Z,24.40
2019-04-16T02:11:14.057Z,24.52
2019-04-16T02:13:45.760Z,24.82
2019-04-16T02:16:13.085Z,24.92
2019-04-16T02:18:42.551Z,23.98
2019-04-16T02:21:11.360Z,24.67
2019-04-16T02:23:39.939Z,23.90
2019-04-16T02:26:08.628Z,24.70
2019-04-16T02:28:37.311Z,25.97
2019-04-16T02:31:13.805Z,25.82
2019-04-16T02:33:36.309Z,23.40
2019-04-16T02:36:05.021Z,25.75
2019-04-16T02:38:33.693Z,25.50
2019-04-16T02:41:02.422Z,25.32
2019-04-16T02:43:31.048Z,23.95
2019-04-16T02:45:59.758Z,25.68
2019-04-16T02:48:29.250Z,26.33
2019-04-16T02:51:14.996Z,25.43
2019-04-16T02:54:01.649Z,24.60
2019-04-16T02:56:51.543Z,25.92
2019-04-16T02:59:19.699Z,25.32
2019-04-16T03:01:59.106Z,26.23
2019-04-16T03:04:29.344Z,28.40
2019-04-16T03:07:02.744Z,25.82
2019-04-16T03:09:28.645Z,26.23
2019-04-16T03:11:57.124Z,25.65
2019-04-16T03:14:29.757Z,26.20
2019-04-16T03:17:14.129Z,19.98
2019-04-16T03:19:51.301Z,27.55
2019-04-16T03:22:21.714Z,25.20
2019-04-16T03:24:50.377Z,26.20
2019-04-16T03:27:21.876Z,25.15
2019-04-16T03:29:49.391Z,27.22
2019-04-16T03:32:18.071Z,24.35
2019-04-16T03:34:46.388Z,25.77
2019-04-16T03:37:15.053Z,24.52
2019-04-16T03:39:44.912Z,26.10
2019-04-16T03:42:13.633Z,27.03
2019-04-16T03:44:41.996Z,27.07
2019-04-16T03:47:10.642Z,28.15
2019-04-16T03:49:39.301Z,26.40
2019-04-16T03:52:09.304Z,27.73
2019-04-16T03:54:38.377Z,26.68
2019-04-16T03:57:07.020Z,26.17
2019-04-16T03:59:35.689Z,27.48
2019-04-16T04:02:04.360Z,27.67
2019-04-16T04:04:33.117Z,25.50
2019-04-16T04:07:01.428Z,25.20
2019-04-16T04:09:30.900Z,25.48
2019-04-16T04:11:59.596Z,26.35
2019-04-16T04:14:28.306Z,27.05
2019-04-16T04:16:57.042Z,26.60
2019-04-16T04:19:25.686Z,26.52
2019-04-16T04:21:54.518Z,26.55
2019-04-16T04:24:23.041Z,28.05
2019-04-16T04:26:51.721Z,26.87
2019-04-16T04:29:23.151Z,25.02
2019-04-16T04:31:50.441Z,26.45
2019-04-16T04:34:19.002Z,26.33
2019-04-16T04:36:47.705Z,26.60
2019-04-16T04:39:16.362Z,25.05
2019-04-16T04:41:45.065Z,25.43
2019-04-16T04:44:13.742Z,24.27
2019-04-16T04:46:43.266Z,23.77
2019-04-16T04:49:12.769Z,24.60
2019-04-16T04:51:43.407Z,23.98
2019-04-16T04:54:11.734Z,24.70
2019-04-16T04:56:40.440Z,24.32
2019-04-16T04:59:09.134Z,23.38
2019-04-16T05:01:37.828Z,24.35
2019-04-16T05:04:10.967Z,22.50
2019-04-16T05:06:41.349Z,24.43
2019-04-16T05:09:10.006Z,23.50
2019-04-16T05:11:38.723Z,24.77
2019-04-16T05:14:07.385Z,25.23
2019-04-16T05:16:36.165Z,22.60
2019-04-16T05:19:04.758Z,22.30
2019-04-16T05:21:33.449Z,25.02
2019-04-16T05:24:02.121Z,23.25
2019-04-16T05:26:30.444Z,25.45
2019-04-16T05:29:00.721Z,25.50
2019-04-16T05:31:31.102Z,22.98
2019-04-16T05:34:02.210Z,24.60
2019-04-16T05:36:29.668Z,23.25
2019-04-16T05:38:58.357Z,25.85
2019-04-16T05:41:27.099Z,25.92
2019-04-16T05:43:58.443Z,26.27
2019-04-16T05:46:26.042Z,27.30
2019-04-16T05:48:54.673Z,25.92
2019-04-16T05:51:24.246Z,28.80
2019-04-16T05:53:54.545Z,29.25
2019-04-16T05:56:30.451Z,30.35
2019-04-16T05:58:59.681Z,29.85
2019-04-16T06:01:33.601Z,31.27
2019-04-16T06:04:02.009Z,34.53
2019-04-16T06:06:31.862Z,32.48
2019-04-16T06:09:00.603Z,23.27
2019-04-16T06:11:35.752Z,29.70
2019-04-16T06:14:01.370Z,31.62
2019-04-16T06:16:34.402Z,29.05
2019-04-16T06:19:08.540Z,31.42
2019-04-16T06:21:56.691Z,32.67
2019-04-16T06:24:27.804Z,31.40
2019-04-16T06:26:57.949Z,32.03
2019-04-16T06:29:47.206Z,31.15
2019-04-16T06:32:20.297Z,31.82
2019-04-16T06:34:53.590Z,30.97
2019-04-16T06:37:28.403Z,31.73
2019-04-16T06:40:12.273Z,30.60
2019-04-16T06:42:51.434Z,31.17
2019-04-16T06:45:29.447Z,32.35
2019-04-16T06:48:02.376Z,32.20
2019-04-16T06:50:39.688Z,32.35
2019-04-16T06:53:19.543Z,32.00
2019-04-16T06:56:08.705Z,31.25
2019-04-16T06:58:51.248Z,31.50
2019-04-16T07:01:18.281Z,32.20
2019-04-16T07:03:59.597Z,25.07
2019-04-16T07:09:25.801Z,30.60
2019-04-16T07:11:56.838Z,31.55
2019-04-16T07:14:25.842Z,31.20
2019-04-16T07:16:59.929Z,32.00
2019-04-16T07:19:25.502Z,31.50
2019-04-16T07:21:54.037Z,31.57
2019-04-16T07:24:23.635Z,33.00
2019-04-16T07:26:56.203Z,32.73
2019-04-16T07:29:31.605Z,31.60
2019-04-16T07:32:03.261Z,31.57
2019-04-16T07:34:39.404Z,30.90
2019-04-16T07:37:21.586Z,32.30
2019-04-16T07:40:09.079Z,30.27
2019-04-16T07:42:50.997Z,28.95
2019-04-16T07:45:13.066Z,32.48
2019-04-16T07:48:01.734Z,31.30
2019-04-16T07:50:48.217Z,31.65
2019-04-16T07:53:22.564Z,31.65
2019-04-16T07:55:58.313Z,31.00
2019-04-16T07:58:28.450Z,30.23
2019-04-16T08:00:57.330Z,30.72
2019-04-16T08:03:26.827Z,29.98
2019-04-16T08:05:55.966Z,29.87
2019-04-16T08:08:25.342Z,28.20
2019-04-16T08:10:54.270Z,29.18
2019-04-16T08:13:23.780Z,29.60
2019-04-16T08:15:57.499Z,27.93
2019-04-16T08:18:26.033Z,29.55
2019-04-16T08:21:02.350Z,29.20
2019-04-16T08:23:26.591Z,28.57
2019-04-16T08:26:02.808Z,29.67
2019-04-16T08:28:26.520Z,30.68
2019-04-16T08:30:55.220Z,29.37
2019-04-16T08:33:28.318Z,28.32
2019-04-16T08:35:54.228Z,29.32
2019-04-16T08:38:25.907Z,28.05
2019-04-16T08:40:54.067Z,28.45
2019-04-16T08:43:22.792Z,29.10
2019-04-16T08:45:51.463Z,30.20
2019-04-16T08:48:20.100Z,29.75
2019-04-16T08:50:49.447Z,29.37
2019-04-16T08:53:18.286Z,26.90
2019-04-16T08:55:46.976Z,25.82
2019-04-16T08:58:15.725Z,25.97
2019-04-16T09:00:46.630Z,27.05
2019-04-16T09:03:16.335Z,26.97
2019-04-16T09:05:45.005Z,26.55
2019-04-16T09:08:22.169Z,27.85
2019-04-16T09:10:51.473Z,25.48
2019-04-16T09:13:33.639Z,27.02
2019-04-16T09:16:03.437Z,27.37
2019-04-16T09:18:50.743Z,27.82
2019-04-16T09:21:19.420Z,27.73
2019-04-16T09:24:08.849Z,29.15
2019-04-16T09:27:12.397Z,28.10
2019-04-16T09:29:53.149Z,27.73
2019-04-16T09:32:38.610Z,29.02
2019-04-16T09:35:19.750Z,29.20
2019-04-16T09:37:50.201Z,29.02
2019-04-16T09:40:37.239Z,28.98
2019-04-16T09:43:23.916Z,29.23
2019-04-16T09:45:53.002Z,29.25
2019-04-16T09:48:22.626Z,29.80
2019-04-16T09:50:51.314Z,29.85
2019-04-16T09:53:33.056Z,28.98
2019-04-16T09:55:50.680Z,28.67
2019-04-16T09:58:24.877Z,27.67
2019-04-16T10:00:55.095Z,29.27
2019-04-16T10:03:28.932Z,27.95
2019-04-16T10:05:58.568Z,27.95
2019-04-16T10:08:29.314Z,26.52
2019-04-16T10:10:58.125Z,26.05
2019-04-16T10:13:32.761Z,27.70
2019-04-16T10:24:08.998Z,27.48
2019-04-16T10:26:35.237Z,26.05
2019-04-16T10:29:14.587Z,28.15
2019-04-16T10:31:43.230Z,27.37
2019-04-16T10:34:12.022Z,26.57
2019-04-16T10:36:40.625Z,25.85
2019-04-16T10:39:16.673Z,24.40
2019-04-16T10:41:49.727Z,25.50
2019-04-16T10:44:36.588Z,24.55
2019-04-16T10:47:23.000Z,26.20
2019-04-16T10:50:02.440Z,25.08
2019-04-16T10:52:53.996Z,26.60
2019-04-16T10:55:29.968Z,27.22
2019-04-16T10:58:16.913Z,26.55
2019-04-16T11:00:47.384Z,26.55
2019-04-16T11:03:34.435Z,27.55
2019-04-16T11:06:01.489Z,26.35
2019-04-16T11:08:30.167Z,25.12
2019-04-16T11:10:58.867Z,26.23
2019-04-16T11:13:29.213Z,26.10
2019-04-16T11:15:59.483Z,27.35
2019-04-16T11:18:28.212Z,27.48
2019-04-16T11:20:56.933Z,26.33
2019-04-16T11:23:25.612Z,26.87
2019-04-16T11:25:54.229Z,26.40
2019-04-16T11:28:22.578Z,25.77
2019-04-16T11:31:01.575Z,27.55
2019-04-16T11:33:30.338Z,25.92
2019-04-16T11:35:58.826Z,27.60
2019-04-16T11:38:28.374Z,26.27
2019-04-16T11:40:57.827Z,26.07
2019-04-16T11:43:26.594Z,26.40
2019-04-16T11:45:55.209Z,27.40
2019-04-16T11:48:23.949Z,27.82
2019-04-16T11:50:52.599Z,27.20
2019-04-16T11:53:21.375Z,27.35
2019-04-16T11:55:49.933Z,28.02
2019-04-16T11:58:20.257Z,27.15
2019-04-16T12:00:59.040Z,26.05
2019-04-16T12:03:29.134Z,27.48
2019-04-16T12:06:27.717Z,28.33
2019-04-16T12:08:50.767Z,26.82
2019-04-16T12:11:20.988Z,28.25
2019-04-16T12:14:10.267Z,28.92
2019-04-16T12:16:56.924Z,27.62
2019-04-16T12:19:29.846Z,28.67
2019-04-16T12:22:15.390Z,29.67
2019-04-16T12:24:45.423Z,30.92
2019-04-16T12:27:31.925Z,30.90
2019-04-16T12:30:02.203Z,29.25
2019-04-16T12:32:38.460Z,30.85
2019-04-16T12:35:26.763Z,30.97
2019-04-16T12:38:06.404Z,32.15
2019-04-16T12:40:54.089Z,32.42
2019-04-16T12:43:36.230Z,30.15
2019-04-16T12:46:17.527Z,32.05
2019-04-16T12:48:55.546Z,31.93
2019-04-16T12:51:44.074Z,31.82
2019-04-16T12:54:14.261Z,31.77
2019-04-16T12:56:47.382Z,30.88
2019-04-16T12:59:22.905Z,30.75
2019-04-16T13:02:12.185Z,30.80
2019-04-16T13:04:49.493Z,29.37
2019-04-16T13:07:22.376Z,27.95
2019-04-16T13:09:58.724Z,29.82
2019-04-16T13:12:34.778Z,27.13
2019-04-16T13:15:11.569Z,27.52
2019-04-16T13:17:47.895Z,27.45
2019-04-16T13:20:19.284Z,25.80
2019-04-16T13:22:49.612Z,28.15
2019-04-16T13:25:19.911Z,26.12
2019-04-16T13:27:50.868Z,27.25
2019-04-16T13:30:20.152Z,24.27
2019-04-16T13:32:48.864Z,24.50
2019-04-16T13:35:17.541Z,24.35
2019-04-16T13:37:46.217Z,25.70
2019-04-16T13:40:16.565Z,24.07
2019-04-16T13:42:45.287Z,24.70
2019-04-16T13:45:18.761Z,25.60
2019-04-16T13:47:48.169Z,25.02
2019-04-16T13:50:18.258Z,26.62
2019-04-16T13:52:48.298Z,26.35
2019-04-16T13:55:18.497Z,26.50
2019-04-16T13:58:04.251Z,25.82
2019-04-16T14:00:46.680Z,25.50
2019-04-16T14:03:16.934Z,25.65
2019-04-16T14:05:45.678Z,24.72
2019-04-16T14:08:14.277Z,23.62
2019-04-16T14:10:43.445Z,23.18
2019-04-16T14:13:13.618Z,22.73
2019-04-16T14:15:44.718Z,21.00
2019-04-16T14:18:12.704Z,23.57
2019-04-16T14:20:41.030Z,23.18
2019-04-16T14:23:09.657Z,24.02
2019-04-16T14:25:37.964Z,23.52
2019-04-16T14:28:06.652Z,22.82
2019-04-16T14:30:39.553Z,22.87
2019-04-16T14:33:07.635Z,23.15
2019-04-16T14:35:40.072Z,21.90
2019-04-16T14:40:34.976Z,21.85
2019-04-16T14:43:03.272Z,22.32
2019-04-16T14:45:53.462Z,23.75
2019-04-16T14:48:08.900Z,22.58
2019-04-16T14:50:37.169Z,21.60
2019-04-16T14:53:05.881Z,20.60
2019-04-16T14:55:59.023Z,21.07
2019-04-16T14:58:29.545Z,21.27
2019-04-16T15:01:25.705Z,21.27
2019-04-16T15:04:01.696Z,20.62
2019-04-16T15:06:49.191Z,21.45
2019-04-16T15:09:45.218Z,21.00
2019-04-16T15:12:21.409Z,21.90
2019-04-16T15:14:57.611Z,24.02
2019-04-16T15:17:44.202Z,23.85
2019-04-16T15:20:23.552Z,23.85
2019-04-16T15:23:08.896Z,23.73
2019-04-16T15:25:54.941Z,24.02
2019-04-16T15:28:25.164Z,25.35
2019-04-16T15:31:10.288Z,23.07
2019-04-16T15:33:40.212Z,23.62
2019-04-16T15:36:10.472Z,25.83
2019-04-16T15:38:43.224Z,23.92
2019-04-16T15:41:17.231Z,26.57
2019-04-16T15:44:02.074Z,25.37
2019-04-16T15:46:35.048Z,25.77
2019-04-16T15:49:07.056Z,24.77
2019-04-16T15:51:37.408Z,25.37
2019-04-16T15:54:10.586Z,25.57
2019-04-16T15:56:46.817Z,25.95
2019-04-16T15:59:16.967Z,23.45
2019-04-16T16:02:03.704Z,22.75
2019-04-16T16:04:49.513Z,22.07
2019-04-16T16:07:23.991Z,22.95
2019-04-16T16:09:52.252Z,24.18
2019-04-16T16:12:22.946Z,24.15
2019-04-16T16:14:51.729Z,25.82
2019-04-16T16:17:22.572Z,24.92
2019-04-16T16:19:50.692Z,24.02
2019-04-16T16:22:19.380Z,25.60
2019-04-16T16:24:48.056Z,25.27
2019-04-16T16:27:16.382Z,23.57
2019-04-16T16:29:45.060Z,23.98
2019-04-16T16:32:15.724Z,23.60
2019-04-16T16:34:44.056Z,24.82
2019-04-16T16:37:12.737Z,25.65
2019-04-16T16:39:41.089Z,22.82
2019-04-16T16:42:10.081Z,24.12
2019-04-16T16:44:38.432Z,21.73
2019-04-16T16:47:08.688Z,23.95
2019-04-16T16:49:37.181Z,21.85
2019-04-16T16:52:23.585Z,21.75
2019-04-16T16:54:53.600Z,21.50
2019-04-16T16:57:23.561Z,23.43
2019-04-16T16:59:54.003Z,24.07
2019-04-16T17:02:27.221Z,23.73
2019-04-16T17:04:57.486Z,23.22
2019-04-16T17:07:26.181Z,23.12
2019-04-16T17:09:54.840Z,21.75
2019-04-16T17:12:23.504Z,21.40
2019-04-16T17:14:52.691Z,23.42
2019-04-16T17:17:21.300Z,23.30
2019-04-16T17:19:50.778Z,23.12
2019-04-16T17:22:19.495Z,22.87
2019-04-16T17:24:48.709Z,23.38
2019-04-16T17:27:17.271Z,23.73
2019-04-16T17:29:49.984Z,23.35
2019-04-16T17:32:19.131Z,23.12
2019-04-16T17:34:50.564Z,24.23
2019-04-16T17:37:21.381Z,23.77
2019-04-16T17:39:53.736Z,24.32
2019-04-16T17:42:23.709Z,22.13
2019-04-16T17:45:09.996Z,20.10
2019-04-16T17:47:55.658Z,20.70
2019-04-16T17:50:40.327Z,22.67
2019-04-16T17:53:10.469Z,22.85
2019-04-16T17:55:52.976Z,23.92
2019-04-16T17:58:24.171Z,24.90
2019-04-16T18:01:01.196Z,24.30
2019-04-16T18:03:43.351Z,23.12
2019-04-16T18:06:16.442Z,24.90
2019-04-16T18:09:04.457Z,25.90
2019-04-16T18:11:37.586Z,24.98
2019-04-16T18:14:11.257Z,26.50
2019-04-16T18:16:39.633Z,25.20
2019-04-16T18:19:09.808Z,25.02
2019-04-16T18:21:48.989Z,23.70
2019-04-16T18:24:25.341Z,24.65
2019-04-16T18:26:55.557Z,23.27
2019-04-16T18:29:31.774Z,24.10
2019-04-16T18:32:03.478Z,22.62
2019-04-16T18:34:46.940Z,24.12
2019-04-16T18:37:23.157Z,24.05
2019-04-16T18:40:09.377Z,24.05
2019-04-16T18:42:51.749Z,24.18
2019-04-16T18:45:40.260Z,24.60
2019-04-16T18:48:15.947Z,23.98
2019-04-16T18:50:44.354Z,24.27
2019-04-16T18:53:12.917Z,23.55
2019-04-16T18:55:41.245Z,24.23
2019-04-16T18:58:09.921Z,23.60
2019-04-16T19:00:52.758Z,21.93
2019-04-16T19:03:21.647Z,23.73
2019-04-16T19:05:50.300Z,21.97
2019-04-16T19:08:18.763Z,22.60
2019-04-16T19:10:47.511Z,24.15
2019-04-16T19:13:19.741Z,25.52
2019-04-16T19:15:46.452Z,26.50
2019-04-16T19:18:19.510Z,27.73
2019-04-16T19:20:45.537Z,28.62
2019-04-16T19:23:14.069Z,31.05
2019-04-16T19:25:42.749Z,31.10
2019-04-16T19:28:11.433Z,31.77
2019-04-16T19:30:40.111Z,30.82
2019-04-16T19:33:08.801Z,30.85
2019-04-16T19:35:37.678Z,30.80
2019-04-16T19:38:07.537Z,32.15
2019-04-16T19:40:36.082Z,28.80
2019-04-16T19:43:04.805Z,31.33
2019-04-16T19:45:33.453Z,30.05
2019-04-16T19:48:02.424Z,31.33
2019-04-16T19:50:36.076Z,29.70
2019-04-16T19:53:02.393Z,29.45
2019-04-16T19:55:31.061Z,31.25
2019-04-16T19:57:59.800Z,31.65
2019-04-16T20:00:28.436Z,30.82
2019-04-16T20:02:57.233Z,32.73
2019-04-16T20:05:28.724Z,29.98
2019-04-16T20:07:56.212Z,31.42
2019-04-16T20:10:24.827Z,32.98
2019-04-16T20:12:53.141Z,33.18
2019-04-16T20:15:21.779Z,30.95
2019-04-16T20:17:50.486Z,31.90
2019-04-16T20:20:19.158Z,33.83
2019-04-16T20:22:48.253Z,35.78
2019-04-16T20:25:16.946Z,38.42
2019-04-16T20:27:46.450Z,35.17
2019-04-16T20:30:15.482Z,38.00
2019-04-16T20:32:43.808Z,36.45
2019-04-16T20:35:17.890Z,36.70
2019-04-16T20:37:42.837Z,37.58
2019-04-16T20:40:14.529Z,39.48
2019-04-16T20:42:41.940Z,42.40
2019-04-16T20:45:11.268Z,41.05
2019-04-16T20:47:40.206Z,41.48
2019-04-16T20:50:08.718Z,40.43
2019-04-16T20:52:37.391Z,43.08
2019-04-16T20:55:06.094Z,42.10
2019-04-16T20:57:34.768Z,42.80
2019-04-16T21:00:10.848Z,41.75
2019-04-16T21:02:38.333Z,41.85
2019-04-16T21:05:21.548Z,43.15
2019-04-16T21:07:37.788Z,43.45
2019-04-16T21:10:06.941Z,42.35
2019-04-16T21:12:55.106Z,41.60
2019-04-16T21:15:27.502Z,43.73
2019-04-16T21:17:55.520Z,41.55
2019-04-16T21:20:24.156Z,43.45
2019-04-16T21:22:52.907Z,44.15
2019-04-16T21:25:21.730Z,44.53
2019-04-16T21:28:00.945Z,45.92
2019-04-16T21:30:29.548Z,43.38
2019-04-16T21:33:17.644Z,44.23
2019-04-16T21:35:52.921Z,43.70
2019-04-16T21:38:23.081Z,45.63
2019-04-16T21:40:52.818Z,44.18
2019-04-16T21:43:22.057Z,45.03
2019-04-16T21:45:50.748Z,43.98
2019-04-16T21:48:19.431Z,45.95
2019-04-16T21:50:48.294Z,46.88
2019-04-16T21:53:17.209Z,45.92
2019-04-16T21:55:45.916Z,46.05
2019-04-16T21:58:17.606Z,45.78
2019-04-16T22:00:52.602Z,43.92
2019-04-16T22:03:22.614Z,45.05
2019-04-16T22:05:51.327Z,45.70
2019-04-16T22:08:20.018Z,43.87
2019-04-16T22:10:48.674Z,45.75
2019-04-16T22:13:19.398Z,44.00
2019-04-16T22:15:47.684Z,45.85
2019-04-16T22:18:16.355Z,43.08
2019-04-16T22:20:45.060Z,46.10
2019-04-16T22:23:19.019Z,48.95
2019-04-16T22:25:44.162Z,44.00
2019-04-16T22:28:13.572Z,45.08
2019-04-16T22:30:42.317Z,43.08
2019-04-16T22:33:10.913Z,45.60
2019-04-16T22:35:39.281Z,43.92
2019-04-16T22:38:13.527Z,42.88
2019-04-16T22:40:56.557Z,44.58
2019-04-16T22:43:43.432Z,43.80
2019-04-16T22:46:14.149Z,43.75
2019-04-16T22:48:56.615Z,44.65
2019-04-16T22:51:25.858Z,45.20
2019-04-16T22:53:54.529Z,44.90
2019-04-16T22:56:28.121Z,44.45
2019-04-16T22:58:55.145Z,43.63
2019-04-16T23:01:28.512Z,43.60
2019-04-16T23:03:57.006Z,45.70
2019-04-16T23:06:25.324Z,43.68
2019-04-16T23:08:53.980Z,44.35
2019-04-16T23:11:23.717Z,41.98
2019-04-16T23:13:52.558Z,44.25
2019-04-16T23:16:20.868Z,43.48
2019-04-16T23:18:49.996Z,43.55
2019-04-16T23:21:18.620Z,45.78
2019-04-16T23:23:47.685Z,42.03
2019-04-16T23:26:17.320Z,46.77
2019-04-16T23:28:46.022Z,43.38
2019-04-16T23:31:14.700Z,44.27
2019-04-16T23:33:43.392Z,46.15
2019-04-16T23:36:15.001Z,45.05
2019-04-16T23:38:42.418Z,47.13
2019-04-16T23:41:15.318Z,45.98
2019-04-16T23:43:59.244Z,48.30
2019-04-16T23:46:45.745Z,47.40
2019-04-16T23:49:35.017Z,45.05
2019-04-16T23:52:05.223Z,43.58
2019-04-16T23:54:52.043Z,46.85
2019-04-16T23:57:25.577Z,44.50
